Purdys Mills, New York
Current Conditions -  °F | °C
As of 9:53 AM on Thursday 30 Oct 2014 (Local Time) from KPBG Reporting Station
Broken Clouds Broken Clouds  
Wind Chill:   Ceiling: 3700
Heat Index:   Visibility: 10mi
Dew Point:   Wind: 8mph
Humidity: 63%   Direction: 310°NW
Pressure: 29.97"   Gusts: NA
Location:  44.8543°N, 73.663°W
Report Text: KPBG 301353Z AUTO 31007KT 10SM BKN037 08/02 A2997 RMK AO2 SLP150 T00830017
Loading
Personal Weather Stations






























Interactive Weather Map
Tropical Storm Tracking
New forecast layout! Learn more

10-Day Weather Forecast

Advertisements
Track Severe Weather on mobile